createdAt,value
2023-04-22T00:00:23.202Z,10.56
2023-04-22T00:02:57.201Z,10.48
2023-04-22T00:05:31.746Z,10.06
2023-04-22T00:08:05.048Z,9.33
2023-04-22T00:10:37.873Z,9.97
2023-04-22T00:13:11.033Z,9.97
2023-04-22T00:15:44.008Z,9.63
2023-04-22T00:18:16.843Z,9.44
2023-04-22T00:20:51.072Z,9.75
2023-04-22T00:23:23.902Z,9.74
2023-04-22T00:25:56.908Z,9.50
2023-04-22T00:28:29.720Z,9.73
2023-04-22T00:31:03.392Z,9.71
2023-04-22T00:33:36.413Z,9.68
2023-04-22T00:36:11.162Z,9.74
2023-04-22T00:38:49.661Z,9.63
2023-04-22T00:41:23.335Z,9.59
2023-04-22T00:43:56.817Z,9.47
2023-04-22T00:46:30.604Z,9.42
2023-04-22T00:49:03.678Z,9.65
2023-04-22T00:51:37.819Z,9.74
2023-04-22T00:54:10.693Z,9.92
2023-04-22T00:56:43.631Z,9.85
2023-04-22T00:59:16.537Z,9.97
2023-04-22T01:01:49.408Z,10.12
2023-04-22T01:04:23.068Z,10.01
2023-04-22T01:06:57.537Z,10.13
2023-04-22T01:09:30.647Z,9.62
2023-04-22T01:12:03.794Z,9.84
2023-04-22T01:14:36.850Z,9.80
2023-04-22T01:17:12.073Z,9.79
2023-04-22T01:19:46.012Z,9.96
2023-04-22T01:22:20.468Z,9.95
2023-04-22T01:24:55.555Z,9.95
2023-04-22T01:27:28.888Z,9.87
2023-04-22T01:30:01.814Z,10.12
2023-04-22T01:32:34.868Z,9.74
2023-04-22T01:35:09.337Z,9.88
2023-04-22T01:37:42.405Z,10.09
2023-04-22T01:40:19.820Z,10.09
2023-04-22T01:42:53.212Z,10.08
2023-04-22T01:45:26.477Z,10.21
2023-04-22T01:47:59.642Z,10.22
2023-04-22T01:50:32.575Z,10.09
2023-04-22T01:53:07.901Z,10.12
2023-04-22T01:55:47.138Z,10.08
2023-04-22T01:58:20.281Z,10.14
2023-04-22T02:00:53.742Z,10.08
2023-04-22T02:03:26.626Z,9.49
2023-04-22T02:06:01.734Z,9.89
2023-04-22T02:08:35.873Z,9.92
2023-04-22T02:11:10.053Z,10.02
2023-04-22T02:13:42.933Z,10.14
2023-04-22T02:16:15.973Z,9.73
2023-04-22T02:18:48.849Z,9.78
2023-04-22T02:21:22.008Z,9.92
2023-04-22T02:23:54.788Z,9.67
2023-04-22T02:26:29.113Z,9.66
2023-04-22T02:29:02.151Z,9.40
2023-04-22T02:31:35.201Z,9.74
2023-04-22T02:34:08.274Z,9.42
2023-04-22T02:36:41.050Z,9.05
2023-04-22T02:39:14.407Z,9.37
2023-04-22T02:41:48.963Z,9.22
2023-04-22T02:44:21.807Z,9.30
2023-04-22T02:46:54.789Z,9.01
2023-04-22T02:49:27.601Z,9.04
2023-04-22T02:52:00.537Z,9.32
2023-04-22T02:54:33.577Z,9.04
2023-04-22T02:57:07.823Z,8.99
2023-04-22T02:59:40.914Z,9.35
2023-04-22T03:02:15.101Z,8.94
2023-04-22T03:05:11.667Z,9.32
2023-04-22T03:07:47.480Z,9.18
2023-04-22T03:10:22.317Z,9.46
2023-04-22T03:12:57.922Z,9.52
2023-04-22T03:15:31.661Z,9.60
2023-04-22T03:18:04.625Z,9.64
2023-04-22T03:20:37.641Z,9.43
2023-04-22T03:23:10.753Z,9.58
2023-04-22T03:25:44.278Z,9.51
2023-04-22T03:28:19.017Z,9.53
2023-04-22T03:30:52.122Z,9.39
2023-04-22T03:33:25.785Z,9.22
2023-04-22T03:36:03.172Z,9.41
2023-04-22T03:38:36.019Z,9.47
2023-04-22T03:41:09.338Z,9.64
2023-04-22T03:43:50.135Z,9.42
2023-04-22T03:46:23.961Z,9.65
2023-04-22T03:49:05.175Z,9.67
2023-04-22T03:51:40.676Z,9.79
2023-04-22T03:54:18.028Z,9.29
2023-04-22T03:56:55.511Z,9.29
2023-04-22T03:59:30.934Z,9.37
2023-04-22T04:02:04.169Z,9.70
2023-04-22T04:04:37.404Z,9.33
2023-04-22T04:07:11.356Z,9.06
2023-04-22T04:09:44.177Z,9.29
2023-04-22T04:12:17.842Z,9.17
2023-04-22T04:14:52.569Z,9.39
2023-04-22T04:17:28.815Z,9.48
2023-04-22T04:20:02.024Z,9.38
2023-04-22T04:22:36.140Z,9.69
2023-04-22T04:25:11.850Z,9.74
2023-04-22T04:27:50.404Z,9.79
2023-04-22T04:30:25.843Z,9.44
2023-04-22T04:33:07.373Z,9.36
2023-04-22T04:35:43.316Z,9.69
2023-04-22T04:38:18.144Z,9.71
2023-04-22T04:40:51.901Z,9.69
2023-04-22T04:43:29.436Z,9.77
2023-04-22T04:46:16.666Z,9.90
2023-04-22T04:48:50.815Z,9.77
2023-04-22T04:51:24.590Z,9.88
2023-04-22T04:54:02.474Z,10.10
2023-04-22T04:56:41.022Z,10.34
2023-04-22T04:59:15.880Z,10.41
2023-04-22T05:01:50.575Z,10.48
2023-04-22T05:04:23.669Z,10.51
2023-04-22T05:06:56.685Z,10.56
2023-04-22T05:09:37.222Z,10.69
2023-04-22T05:12:10.406Z,10.36
2023-04-22T05:14:43.432Z,10.59
2023-04-22T05:17:17.778Z,10.79
2023-04-22T05:19:50.930Z,11.11
2023-04-22T05:22:23.883Z,11.17
2023-04-22T05:24:56.724Z,11.33
2023-04-22T05:27:30.706Z,11.41
2023-04-22T05:30:03.925Z,11.64
2023-04-22T05:32:40.596Z,11.67
2023-04-22T05:35:13.780Z,11.56
2023-04-22T05:37:48.055Z,11.68
2023-04-22T05:40:21.197Z,11.81
2023-04-22T05:42:54.040Z,12.01
2023-04-22T05:45:27.326Z,12.11
2023-04-22T05:48:01.606Z,12.28
2023-04-22T05:50:38.485Z,12.52
2023-04-22T05:53:14.264Z,12.65
2023-04-22T05:55:48.723Z,12.80
2023-04-22T05:58:21.592Z,12.97
2023-04-22T06:01:01.573Z,13.22
2023-04-22T06:04:01.907Z,13.47
2023-04-22T06:06:35.464Z,13.49
2023-04-22T06:09:08.747Z,13.74
2023-04-22T06:11:41.927Z,13.71
2023-04-22T06:14:15.124Z,13.84
2023-04-22T06:16:50.470Z,13.98
2023-04-22T06:19:24.818Z,14.09
2023-04-22T06:21:57.888Z,14.16
2023-04-22T06:24:31.000Z,14.24
2023-04-22T06:27:04.171Z,14.37
2023-04-22T06:29:37.335Z,14.42
2023-04-22T06:32:10.522Z,14.48
2023-04-22T06:34:44.757Z,14.59
2023-04-22T06:37:17.672Z,14.60
2023-04-22T06:39:51.767Z,14.70
2023-04-22T06:43:00.179Z,14.84
2023-04-22T06:45:56.522Z,14.86
2023-04-22T06:48:40.236Z,14.94
2023-04-22T06:51:40.838Z,15.04
2023-04-22T06:54:14.292Z,15.07
2023-04-22T06:56:47.459Z,15.28
2023-04-22T06:59:23.136Z,15.25
2023-04-22T07:01:56.098Z,15.39
2023-04-22T07:04:29.506Z,15.77
2023-04-22T07:07:05.967Z,15.74
2023-04-22T07:09:39.828Z,16.16
2023-04-22T07:12:13.332Z,16.44
2023-04-22T07:14:46.968Z,16.91
2023-04-22T07:17:22.571Z,16.85
2023-04-22T07:19:55.418Z,17.20
2023-04-22T07:22:29.636Z,16.97
2023-04-22T07:25:02.574Z,17.49
2023-04-22T07:27:37.199Z,16.96
2023-04-22T07:30:12.997Z,17.82
2023-04-22T07:32:48.244Z,17.31
2023-04-22T07:35:21.669Z,17.67
2023-04-22T07:37:55.969Z,17.75
2023-04-22T07:40:28.958Z,17.36
2023-04-22T07:43:01.901Z,17.36
2023-04-22T07:45:34.928Z,17.84
2023-04-22T07:48:07.852Z,18.04
2023-04-22T07:50:41.162Z,18.12
2023-04-22T07:53:18.038Z,17.64
2023-04-22T07:55:51.041Z,17.78
2023-04-22T07:58:23.841Z,17.82
2023-04-22T08:00:57.014Z,17.60
2023-04-22T08:03:30.335Z,17.38
2023-04-22T08:06:03.397Z,17.85
2023-04-22T08:08:37.727Z,17.82
2023-04-22T08:11:10.781Z,17.76
2023-04-22T08:13:43.623Z,18.02
2023-04-22T08:16:16.681Z,18.33
2023-04-22T08:18:49.477Z,18.51
2023-04-22T08:21:22.678Z,18.62
2023-04-22T08:23:56.795Z,18.77
2023-04-22T08:26:29.676Z,18.41
2023-04-22T08:29:02.760Z,18.99
2023-04-22T08:31:35.815Z,19.06
2023-04-22T08:34:08.720Z,18.97
2023-04-22T08:36:41.769Z,19.06
2023-04-22T08:39:16.010Z,19.35
2023-04-22T08:41:50.383Z,19.09
2023-04-22T08:44:23.711Z,19.00
2023-04-22T08:46:57.406Z,19.32
2023-04-22T08:49:31.480Z,19.35
2023-04-22T08:52:04.791Z,19.43
2023-04-22T08:54:39.281Z,20.04
2023-04-22T08:57:13.268Z,19.63
2023-04-22T08:59:46.561Z,20.32
2023-04-22T09:02:21.944Z,20.33
2023-04-22T09:04:55.019Z,20.63
2023-04-22T09:07:29.521Z,20.78
2023-04-22T09:10:04.504Z,20.32
2023-04-22T09:12:41.198Z,20.76
2023-04-22T09:15:14.151Z,21.20
2023-04-22T09:17:47.060Z,21.49
2023-04-22T09:20:20.615Z,20.63
2023-04-22T09:22:53.997Z,21.17
2023-04-22T09:25:28.777Z,21.21
2023-04-22T09:28:02.290Z,21.31
2023-04-22T09:30:37.955Z,20.38
2023-04-22T09:33:11.063Z,21.19
2023-04-22T09:35:47.452Z,20.90
2023-04-22T09:38:21.831Z,22.00
2023-04-22T09:40:56.255Z,21.87
2023-04-22T09:43:33.839Z,20.95
2023-04-22T09:46:06.797Z,21.29
2023-04-22T09:48:43.624Z,21.26
2023-04-22T09:51:17.318Z,21.10
2023-04-22T09:54:10.618Z,20.76
2023-04-22T09:56:48.516Z,20.80
2023-04-22T09:59:23.182Z,21.54
2023-04-22T10:02:01.267Z,22.03
2023-04-22T10:04:34.369Z,22.01
2023-04-22T10:07:07.554Z,21.59
2023-04-22T10:09:40.996Z,21.78
2023-04-22T10:12:16.666Z,21.49
2023-04-22T10:14:53.419Z,21.57
2023-04-22T10:17:27.015Z,21.86
2023-04-22T10:20:03.773Z,22.02
2023-04-22T10:22:36.781Z,22.20
2023-04-22T10:25:14.315Z,22.84
2023-04-22T10:27:54.138Z,22.37
2023-04-22T10:30:31.343Z,23.14
2023-04-22T10:33:42.092Z,22.82
2023-04-22T10:36:18.624Z,22.16
2023-04-22T10:39:17.891Z,22.64
2023-04-22T10:42:05.185Z,22.15
2023-04-22T10:44:50.402Z,22.52
2023-04-22T10:47:30.959Z,22.69
2023-04-22T10:50:24.012Z,22.71
2023-04-22T10:52:59.613Z,23.50
2023-04-22T10:55:50.645Z,23.73
2023-04-22T10:58:25.793Z,22.86
2023-04-22T11:01:03.172Z,22.91
2023-04-22T11:03:36.229Z,22.89
2023-04-22T11:06:16.878Z,22.59
2023-04-22T11:08:51.588Z,23.41
2023-04-22T11:11:24.809Z,23.13
2023-04-22T11:13:59.161Z,23.01
2023-04-22T11:16:34.212Z,22.68
2023-04-22T11:19:07.142Z,22.44
2023-04-22T11:21:40.545Z,22.92
2023-04-22T11:24:13.281Z,22.87
2023-04-22T11:26:46.926Z,22.27
2023-04-22T11:29:19.883Z,22.65
2023-04-22T11:31:54.149Z,22.25
2023-04-22T11:34:27.462Z,22.71
2023-04-22T11:37:00.266Z,22.86
2023-04-22T11:39:43.661Z,23.39
2023-04-22T11:42:23.565Z,23.51
2023-04-22T11:44:56.611Z,23.85
2023-04-22T11:47:32.048Z,23.49
2023-04-22T11:50:09.687Z,23.84
2023-04-22T11:52:45.784Z,23.48
2023-04-22T11:55:22.960Z,23.43
2023-04-22T11:57:57.850Z,23.26
2023-04-22T12:00:34.426Z,22.83
2023-04-22T12:03:15.495Z,23.26
2023-04-22T12:05:52.561Z,23.43
2023-04-22T12:08:27.007Z,23.96
2023-04-22T12:11:02.100Z,23.97
2023-04-22T12:13:42.742Z,23.73
2023-04-22T12:16:18.665Z,24.12
2023-04-22T12:18:54.112Z,24.57
2023-04-22T12:21:28.602Z,24.83
2023-04-22T12:24:08.057Z,24.52
2023-04-22T12:26:40.843Z,23.56
2023-04-22T12:29:13.707Z,23.36
2023-04-22T12:31:46.646Z,23.88
2023-04-22T12:34:20.822Z,23.93
2023-04-22T12:36:54.883Z,24.50
2023-04-22T12:39:27.992Z,24.72
2023-04-22T12:42:00.797Z,24.39
2023-04-22T12:44:33.552Z,24.64
2023-04-22T12:47:06.559Z,24.57
2023-04-22T12:49:46.939Z,24.79
2023-04-22T12:52:19.966Z,25.16
2023-04-22T12:54:52.999Z,24.76
2023-04-22T12:57:27.092Z,24.30
2023-04-22T13:00:00.097Z,25.23
2023-04-22T13:02:32.952Z,24.76
2023-04-22T13:05:07.518Z,25.45
2023-04-22T13:07:41.758Z,24.86
2023-04-22T13:10:16.712Z,25.79
2023-04-22T13:12:50.043Z,25.69
2023-04-22T13:15:22.827Z,25.37
2023-04-22T13:17:55.660Z,25.67
2023-04-22T13:20:30.058Z,25.41
2023-04-22T13:23:04.804Z,25.12
2023-04-22T13:25:37.931Z,25.14
2023-04-22T13:28:12.105Z,24.73
2023-04-22T13:30:45.248Z,25.17
2023-04-22T13:33:17.967Z,24.95
2023-04-22T13:35:52.143Z,25.14
2023-04-22T13:38:25.137Z,24.91
2023-04-22T13:40:57.968Z,23.99
2023-04-22T13:43:30.805Z,24.78
2023-04-22T13:46:03.744Z,24.14
2023-04-22T13:48:36.961Z,24.46
2023-04-22T13:51:11.110Z,24.79
2023-04-22T13:53:44.214Z,25.21
2023-04-22T13:56:17.181Z,24.83
2023-04-22T13:58:50.192Z,25.11
2023-04-22T14:01:23.137Z,25.39
2023-04-22T14:03:56.025Z,25.32
2023-04-22T14:06:30.392Z,24.50
2023-04-22T14:09:05.000Z,24.43
2023-04-22T14:11:37.887Z,24.61
2023-04-22T14:14:11.108Z,24.46
2023-04-22T14:16:44.049Z,24.76
2023-04-22T14:19:16.907Z,24.01
2023-04-22T14:21:51.247Z,24.32
2023-04-22T14:24:24.580Z,25.17
2023-04-22T14:27:00.289Z,24.97
2023-04-22T14:29:33.207Z,25.45
2023-04-22T14:32:06.245Z,24.81
2023-04-22T14:34:39.702Z,25.03
2023-04-22T14:37:13.972Z,24.57
2023-04-22T14:39:46.824Z,24.66
2023-04-22T14:42:20.469Z,24.25
2023-04-22T14:44:53.562Z,24.37
2023-04-22T14:47:26.613Z,24.23
2023-04-22T14:49:59.449Z,23.94
2023-04-22T14:52:34.014Z,23.78
2023-04-22T14:55:19.580Z,24.34
2023-04-22T14:57:57.730Z,24.00
2023-04-22T15:00:31.141Z,23.53
2023-04-22T15:03:05.035Z,23.87
2023-04-22T15:05:37.915Z,23.54
2023-04-22T15:08:14.685Z,23.51
2023-04-22T15:10:47.544Z,23.25
2023-04-22T15:13:21.010Z,23.60
2023-04-22T15:15:53.870Z,23.34
2023-04-22T15:18:27.483Z,22.92
2023-04-22T15:21:00.357Z,22.89
2023-04-22T15:23:34.511Z,22.85
2023-04-22T15:26:07.421Z,22.91
2023-04-22T15:28:40.491Z,22.65
2023-04-22T15:31:13.472Z,22.64
2023-04-22T15:33:46.520Z,22.56
2023-04-22T15:36:21.644Z,22.48
2023-04-22T15:38:57.103Z,22.54
2023-04-22T15:41:29.974Z,22.26
2023-04-22T15:44:03.645Z,22.25
2023-04-22T15:46:36.602Z,22.26
2023-04-22T15:49:09.411Z,22.20
2023-04-22T15:51:42.669Z,22.67
2023-04-22T15:54:17.006Z,22.29
2023-04-22T15:56:49.908Z,22.37
2023-04-22T15:59:22.900Z,22.54
2023-04-22T16:01:56.428Z,22.59
2023-04-22T16:04:29.773Z,22.65
2023-04-22T16:07:02.679Z,22.74
2023-04-22T16:09:36.918Z,22.92
2023-04-22T16:12:09.704Z,22.73
2023-04-22T16:14:42.541Z,22.27
2023-04-22T16:17:15.914Z,22.41
2023-04-22T16:19:48.880Z,22.20
2023-04-22T16:22:21.996Z,22.10
2023-04-22T16:25:15.175Z,22.02
2023-04-22T16:27:48.286Z,21.99
2023-04-22T16:30:21.094Z,21.91
2023-04-22T16:32:53.837Z,21.74
2023-04-22T16:35:26.609Z,21.72
2023-04-22T16:37:59.871Z,21.44
2023-04-22T16:40:35.046Z,21.43
2023-04-22T16:43:09.204Z,21.09
2023-04-22T16:45:42.754Z,20.85
2023-04-22T16:48:15.985Z,20.75
2023-04-22T16:50:49.513Z,20.62
2023-04-22T16:53:22.289Z,20.50
2023-04-22T16:55:56.714Z,20.46
2023-04-22T16:58:29.544Z,20.41
2023-04-22T17:01:02.378Z,20.35
2023-04-22T17:03:35.404Z,20.26
2023-04-22T17:06:08.798Z,20.19
2023-04-22T17:08:41.553Z,20.34
2023-04-22T17:11:15.947Z,20.28
2023-04-22T17:13:48.911Z,20.26
2023-04-22T17:16:21.808Z,20.31
2023-04-22T17:18:54.732Z,20.06
2023-04-22T17:21:28.067Z,20.02
2023-04-22T17:24:02.262Z,19.89
2023-04-22T17:26:37.119Z,19.95
2023-04-22T17:29:09.905Z,19.72
2023-04-22T17:31:42.881Z,20.02
2023-04-22T17:34:15.909Z,19.75
2023-04-22T17:36:48.887Z,19.63
2023-04-22T17:39:22.043Z,19.54
2023-04-22T17:41:57.668Z,19.54
2023-04-22T17:44:32.005Z,19.38
2023-04-22T17:47:06.801Z,19.29
2023-04-22T17:49:40.506Z,19.27
2023-04-22T17:52:13.627Z,19.31
2023-04-22T17:54:46.770Z,19.27
2023-04-22T17:57:21.262Z,19.25
2023-04-22T17:59:54.537Z,19.25
2023-04-22T18:02:27.896Z,19.43
2023-04-22T18:05:01.444Z,19.37
2023-04-22T18:07:34.495Z,19.19
2023-04-22T18:10:08.838Z,19.46
2023-04-22T18:12:44.355Z,19.50
2023-04-22T18:15:17.407Z,19.29
2023-04-22T18:17:50.261Z,18.85
2023-04-22T18:20:23.253Z,19.07
2023-04-22T18:22:56.620Z,19.20
2023-04-22T18:25:29.897Z,19.34
2023-04-22T18:28:04.144Z,19.27
2023-04-22T18:30:37.104Z,19.22
2023-04-22T18:33:10.128Z,18.95
2023-04-22T18:35:43.120Z,19.06
2023-04-22T18:38:16.538Z,19.05
2023-04-22T18:40:49.357Z,18.90
2023-04-22T18:43:23.616Z,18.88
2023-04-22T18:45:56.612Z,18.68
2023-04-22T18:48:29.532Z,18.84
2023-04-22T18:51:02.586Z,18.78
2023-04-22T18:53:35.466Z,18.60
2023-04-22T18:56:08.220Z,18.64
2023-04-22T18:58:42.685Z,18.62
2023-04-22T19:01:16.334Z,18.42
2023-04-22T19:03:49.829Z,18.38
2023-04-22T19:06:22.662Z,18.00
2023-04-22T19:08:55.554Z,18.04
2023-04-22T19:11:28.888Z,18.07
2023-04-22T19:14:03.344Z,17.81
2023-04-22T19:16:36.149Z,17.83
2023-04-22T19:19:08.901Z,18.05
2023-04-22T19:21:42.087Z,17.64
2023-04-22T19:24:16.275Z,18.01
2023-04-22T19:26:49.357Z,17.99
2023-04-22T19:29:23.517Z,17.76
2023-04-22T19:31:58.912Z,17.74
2023-04-22T19:34:32.672Z,17.92
2023-04-22T19:37:06.104Z,17.84
2023-04-22T19:39:39.523Z,17.60
2023-04-22T19:42:12.811Z,17.71
2023-04-22T19:44:48.384Z,17.53
2023-04-22T19:47:21.552Z,17.50
2023-04-22T19:49:54.851Z,17.51
2023-04-22T19:52:28.844Z,17.38
2023-04-22T19:55:08.753Z,17.39
2023-04-22T19:57:42.355Z,17.46
2023-04-22T20:00:17.671Z,17.19
2023-04-22T20:02:51.669Z,17.43
2023-04-22T20:05:26.199Z,17.26
2023-04-22T20:07:59.846Z,17.18
2023-04-22T20:10:33.007Z,17.16
2023-04-22T20:13:06.279Z,17.17
2023-04-22T20:15:41.006Z,16.92
2023-04-22T20:18:14.191Z,16.73
2023-04-22T20:20:48.226Z,16.98
2023-04-22T20:23:24.147Z,16.90
2023-04-22T20:25:57.760Z,17.00
2023-04-22T20:28:43.870Z,16.86
2023-04-22T20:31:20.514Z,16.90
2023-04-22T20:33:53.959Z,16.88
2023-04-22T20:36:27.440Z,16.77
2023-04-22T20:39:05.283Z,16.98
2023-04-22T20:41:39.870Z,16.86
2023-04-22T20:44:14.217Z,16.72
2023-04-22T20:46:48.777Z,16.53
2023-04-22T20:49:22.059Z,16.50
2023-04-22T20:51:56.374Z,16.43
2023-04-22T20:54:30.319Z,16.48
2023-04-22T20:57:04.817Z,16.43
2023-04-22T20:59:37.801Z,16.32
2023-04-22T21:02:13.382Z,16.34
2023-04-22T21:04:46.583Z,16.31
2023-04-22T21:07:21.685Z,16.20
2023-04-22T21:09:54.808Z,16.31
2023-04-22T21:12:28.240Z,16.22
2023-04-22T21:15:02.026Z,16.29
2023-04-22T21:17:38.717Z,16.24
2023-04-22T21:20:12.424Z,16.20
2023-04-22T21:22:47.135Z,16.23
2023-04-22T21:25:23.467Z,16.13
2023-04-22T21:27:56.806Z,16.09
2023-04-22T21:30:30.497Z,16.15
2023-04-22T21:33:04.738Z,16.12
2023-04-22T21:35:39.282Z,15.96
2023-04-22T21:38:12.654Z,16.06
2023-04-22T21:40:45.698Z,15.98
2023-04-22T21:43:18.638Z,15.91
2023-04-22T21:45:51.668Z,15.88
2023-04-22T21:48:26.540Z,15.91
2023-04-22T21:51:00.175Z,15.94
2023-04-22T21:53:33.500Z,15.82
2023-04-22T21:56:06.879Z,15.80
2023-04-22T21:58:39.885Z,15.97
2023-04-22T22:01:13.337Z,15.92
2023-04-22T22:03:48.085Z,15.78
2023-04-22T22:06:21.086Z,15.87
2023-04-22T22:08:54.891Z,15.73
2023-04-22T22:11:31.165Z,15.78
2023-04-22T22:14:04.796Z,15.75
2023-04-22T22:16:38.413Z,15.65
2023-04-22T22:19:14.071Z,15.60
2023-04-22T22:21:47.330Z,15.40
2023-04-22T22:24:20.164Z,15.36
2023-04-22T22:26:53.113Z,15.52
2023-04-22T22:29:26.106Z,15.30
2023-04-22T22:31:59.152Z,15.11
2023-04-22T22:34:33.881Z,15.30
2023-04-22T22:37:07.076Z,15.31
2023-04-22T22:39:39.963Z,15.09
2023-04-22T22:42:12.864Z,15.16
2023-04-22T22:44:45.672Z,14.99
2023-04-22T22:47:18.881Z,14.97
2023-04-22T22:49:53.552Z,15.05
2023-04-22T22:52:26.361Z,15.20
2023-04-22T22:54:59.558Z,15.19
2023-04-22T22:57:32.396Z,15.25
2023-04-22T23:00:06.998Z,15.17
2023-04-22T23:02:40.385Z,15.23
2023-04-22T23:05:14.892Z,15.44
2023-04-22T23:07:47.772Z,15.09
2023-04-22T23:10:23.994Z,15.21
2023-04-22T23:13:04.307Z,15.08
2023-04-22T23:15:37.571Z,14.85
2023-04-22T23:18:10.644Z,15.07
2023-04-22T23:20:45.232Z,15.07
2023-04-22T23:23:19.942Z,15.29
2023-04-22T23:25:53.549Z,15.36
2023-04-22T23:28:26.950Z,15.38
2023-04-22T23:31:00.059Z,14.92
2023-04-22T23:33:36.057Z,15.09
2023-04-22T23:36:14.104Z,14.87
2023-04-22T23:38:47.145Z,15.11
2023-04-22T23:41:19.969Z,14.79
2023-04-22T23:43:53.307Z,15.12
2023-04-22T23:46:26.841Z,15.03
2023-04-22T23:49:01.457Z,15.10
2023-04-22T23:51:35.960Z,14.95
2023-04-22T23:54:09.084Z,14.68
2023-04-22T23:56:43.015Z,14.88
2023-04-22T23:59:16.624Z,14.66
